sensor_id;sensor_type;location;lat;lon;timestamp;pressure;altitude;pressure_sealevel;temperature;humidity
60642;BME280;46837;52.446;-1.930;2024-02-26T00:00:11;98819.95;;;4.85;82.00
60642;BME280;46837;52.446;-1.930;2024-02-26T00:01:09;98817.57;;;4.85;82.14
60642;BME280;46837;52.446;-1.930;2024-02-26T00:02:09;98821.31;;;4.85;82.12
60642;BME280;46837;52.446;-1.930;2024-02-26T00:03:09;98824.01;;;4.85;82.18
60642;BME280;46837;52.446;-1.930;2024-02-26T00:04:09;98826.88;;;4.83;82.29
60642;BME280;46837;52.446;-1.930;2024-02-26T00:05:09;98829.52;;;4.82;82.33
60642;BME280;46837;52.446;-1.930;2024-02-26T00:06:09;98826.78;;;4.84;82.35
60642;BME280;46837;52.446;-1.930;2024-02-26T00:07:09;98830.46;;;4.83;82.39
60642;BME280;46837;52.446;-1.930;2024-02-26T00:08:09;98837.22;;;4.85;82.32
60642;BME280;46837;52.446;-1.930;2024-02-26T00:09:09;98828.95;;;4.86;82.29
60642;BME280;46837;52.446;-1.930;2024-02-26T00:10:09;98832.36;;;4.86;82.36
60642;BME280;46837;52.446;-1.930;2024-02-26T00:11:09;98834.03;;;4.83;82.31
60642;BME280;46837;52.446;-1.930;2024-02-26T00:12:09;98833.50;;;4.86;82.31
60642;BME280;46837;52.446;-1.930;2024-02-26T00:13:09;98834.23;;;4.82;82.29
60642;BME280;46837;52.446;-1.930;2024-02-26T00:14:09;98845.81;;;4.82;82.33
60642;BME280;46837;52.446;-1.930;2024-02-26T00:15:09;98837.34;;;4.86;82.24
60642;BME280;46837;52.446;-1.930;2024-02-26T00:16:09;98844.11;;;4.87;82.16
60642;BME280;46837;52.446;-1.930;2024-02-26T00:17:09;98851.03;;;4.84;82.01
60642;BME280;46837;52.446;-1.930;2024-02-26T00:18:09;98858.22;;;4.83;82.11
60642;BME280;46837;52.446;-1.930;2024-02-26T00:19:09;98853.18;;;4.81;81.99
60642;BME280;46837;52.446;-1.930;2024-02-26T00:20:11;98860.00;;;4.81;81.93
60642;BME280;46837;52.446;-1.930;2024-02-26T00:21:09;98852.22;;;4.84;81.74
60642;BME280;46837;52.446;-1.930;2024-02-26T00:22:09;98859.79;;;4.85;81.63
60642;BME280;46837;52.446;-1.930;2024-02-26T00:23:09;98859.04;;;4.84;81.62
60642;BME280;46837;52.446;-1.930;2024-02-26T00:24:09;98863.42;;;4.83;81.45
60642;BME280;46837;52.446;-1.930;2024-02-26T00:25:09;98870.87;;;4.82;81.42
60642;BME280;46837;52.446;-1.930;2024-02-26T00:26:09;98869.62;;;4.80;81.51
60642;BME280;46837;52.446;-1.930;2024-02-26T00:27:09;98862.53;;;4.81;81.48
60642;BME280;46837;52.446;-1.930;2024-02-26T00:28:09;98870.90;;;4.76;81.28
60642;BME280;46837;52.446;-1.930;2024-02-26T00:29:09;98869.20;;;4.74;81.47
60642;BME280;46837;52.446;-1.930;2024-02-26T00:30:09;98888.04;;;4.74;81.50
60642;BME280;46837;52.446;-1.930;2024-02-26T00:31:09;98873.27;;;4.74;81.46
60642;BME280;46837;52.446;-1.930;2024-02-26T00:32:09;98882.80;;;4.75;81.50
60642;BME280;46837;52.446;-1.930;2024-02-26T00:33:09;98885.15;;;4.79;81.27
60642;BME280;46837;52.446;-1.930;2024-02-26T00:34:09;98898.21;;;4.74;81.22
60642;BME280;46837;52.446;-1.930;2024-02-26T00:35:09;98884.34;;;4.71;81.31
60642;BME280;46837;52.446;-1.930;2024-02-26T00:36:09;98887.52;;;4.69;81.31
60642;BME280;46837;52.446;-1.930;2024-02-26T00:37:09;98886.36;;;4.72;81.31
60642;BME280;46837;52.446;-1.930;2024-02-26T00:38:09;98893.44;;;4.70;81.28
60642;BME280;46837;52.446;-1.930;2024-02-26T00:39:09;98898.00;;;4.65;81.26
60642;BME280;46837;52.446;-1.930;2024-02-26T00:40:09;98893.66;;;4.64;81.42
60642;BME280;46837;52.446;-1.930;2024-02-26T00:41:09;98902.23;;;4.65;81.36
60642;BME280;46837;52.446;-1.930;2024-02-26T00:42:09;98900.02;;;4.60;81.17
60642;BME280;46837;52.446;-1.930;2024-02-26T00:43:09;98908.70;;;4.64;81.35
60642;BME280;46837;52.446;-1.930;2024-02-26T00:44:09;98907.31;;;4.65;81.50
60642;BME280;46837;52.446;-1.930;2024-02-26T00:45:09;98904.74;;;4.69;81.32
60642;BME280;46837;52.446;-1.930;2024-02-26T00:46:09;98924.70;;;4.67;81.18
60642;BME280;46837;52.446;-1.930;2024-02-26T00:47:09;98920.91;;;4.61;81.28
60642;BME280;46837;52.446;-1.930;2024-02-26T00:48:09;98915.15;;;4.63;81.28
60642;BME280;46837;52.446;-1.930;2024-02-26T00:49:09;98916.54;;;4.62;81.19
60642;BME280;46837;52.446;-1.930;2024-02-26T00:50:09;98925.15;;;4.63;81.28
60642;BME280;46837;52.446;-1.930;2024-02-26T00:51:10;98928.26;;;4.66;81.11
60642;BME280;46837;52.446;-1.930;2024-02-26T00:52:09;98923.55;;;4.68;81.01
60642;BME280;46837;52.446;-1.930;2024-02-26T00:53:09;98922.08;;;4.65;81.02
60642;BME280;46837;52.446;-1.930;2024-02-26T00:54:09;98932.08;;;4.63;81.08
60642;BME280;46837;52.446;-1.930;2024-02-26T00:55:09;98935.50;;;4.65;81.02
60642;BME280;46837;52.446;-1.930;2024-02-26T00:56:09;98937.87;;;4.64;80.93
60642;BME280;46837;52.446;-1.930;2024-02-26T00:57:09;98944.04;;;4.64;80.83
60642;BME280;46837;52.446;-1.930;2024-02-26T00:58:09;98965.15;;;4.65;80.86
60642;BME280;46837;52.446;-1.930;2024-02-26T00:59:09;98943.89;;;4.66;80.61
60642;BME280;46837;52.446;-1.930;2024-02-26T01:00:09;98942.36;;;4.63;80.49
60642;BME280;46837;52.446;-1.930;2024-02-26T01:01:09;98958.37;;;4.64;80.51
60642;BME280;46837;52.446;-1.930;2024-02-26T01:02:09;98953.52;;;4.67;80.35
60642;BME280;46837;52.446;-1.930;2024-02-26T01:03:09;98960.76;;;4.64;80.33
60642;BME280;46837;52.446;-1.930;2024-02-26T01:04:09;98959.07;;;4.62;80.27
60642;BME280;46837;52.446;-1.930;2024-02-26T01:05:09;98961.89;;;4.64;80.34
60642;BME280;46837;52.446;-1.930;2024-02-26T01:06:09;98962.81;;;4.64;80.40
60642;BME280;46837;52.446;-1.930;2024-02-26T01:07:09;98969.51;;;4.62;80.34
60642;BME280;46837;52.446;-1.930;2024-02-26T01:08:09;98970.05;;;4.61;80.24
60642;BME280;46837;52.446;-1.930;2024-02-26T01:09:09;98973.24;;;4.63;80.30
60642;BME280;46837;52.446;-1.930;2024-02-26T01:10:10;98971.50;;;4.66;80.30
60642;BME280;46837;52.446;-1.930;2024-02-26T01:11:09;98967.57;;;4.70;80.25
60642;BME280;46837;52.446;-1.930;2024-02-26T01:12:09;98972.58;;;4.68;80.23
60642;BME280;46837;52.446;-1.930;2024-02-26T01:13:09;98980.91;;;4.66;80.33
60642;BME280;46837;52.446;-1.930;2024-02-26T01:14:09;98969.67;;;4.63;80.27
60642;BME280;46837;52.446;-1.930;2024-02-26T01:15:09;98987.01;;;4.65;80.35
60642;BME280;46837;52.446;-1.930;2024-02-26T01:16:09;98976.93;;;4.62;80.21
60642;BME280;46837;52.446;-1.930;2024-02-26T01:17:09;98984.52;;;4.65;80.19
60642;BME280;46837;52.446;-1.930;2024-02-26T01:18:09;98983.75;;;4.64;80.03
60642;BME280;46837;52.446;-1.930;2024-02-26T01:19:09;98985.11;;;4.63;79.94
60642;BME280;46837;52.446;-1.930;2024-02-26T01:20:09;98986.80;;;4.65;79.98
60642;BME280;46837;52.446;-1.930;2024-02-26T01:21:11;98994.33;;;4.59;80.03
60642;BME280;46837;52.446;-1.930;2024-02-26T01:22:09;99000.20;;;4.64;80.07
60642;BME280;46837;52.446;-1.930;2024-02-26T01:23:09;98997.30;;;4.60;80.11
60642;BME280;46837;52.446;-1.930;2024-02-26T01:24:09;98999.56;;;4.58;80.05
60642;BME280;46837;52.446;-1.930;2024-02-26T01:25:09;98997.45;;;4.58;80.12
60642;BME280;46837;52.446;-1.930;2024-02-26T01:26:09;99001.22;;;4.55;79.98
60642;BME280;46837;52.446;-1.930;2024-02-26T01:27:09;98999.40;;;4.60;80.16
60642;BME280;46837;52.446;-1.930;2024-02-26T01:28:09;98995.44;;;4.58;79.92
60642;BME280;46837;52.446;-1.930;2024-02-26T01:29:09;99003.29;;;4.57;79.88
60642;BME280;46837;52.446;-1.930;2024-02-26T01:30:09;99013.47;;;4.60;79.96
60642;BME280;46837;52.446;-1.930;2024-02-26T01:31:10;99012.27;;;4.56;79.95
60642;BME280;46837;52.446;-1.930;2024-02-26T01:32:09;99011.35;;;4.58;80.04
60642;BME280;46837;52.446;-1.930;2024-02-26T01:33:09;99010.58;;;4.55;79.94
60642;BME280;46837;52.446;-1.930;2024-02-26T01:34:09;99015.80;;;4.59;80.03
60642;BME280;46837;52.446;-1.930;2024-02-26T01:35:10;99011.91;;;4.52;79.92
60642;BME280;46837;52.446;-1.930;2024-02-26T01:36:09;99022.62;;;4.52;80.03
60642;BME280;46837;52.446;-1.930;2024-02-26T01:37:09;99015.73;;;4.56;80.07
60642;BME280;46837;52.446;-1.930;2024-02-26T01:38:09;99019.31;;;4.58;80.03
60642;BME280;46837;52.446;-1.930;2024-02-26T01:39:09;99017.07;;;4.57;79.93
60642;BME280;46837;52.446;-1.930;2024-02-26T01:40:09;99019.18;;;4.57;79.91
60642;BME280;46837;52.446;-1.930;2024-02-26T01:41:09;99023.57;;;4.57;79.97
60642;BME280;46837;52.446;-1.930;2024-02-26T01:42:09;99013.39;;;4.56;79.98
60642;BME280;46837;52.446;-1.930;2024-02-26T01:43:09;99027.20;;;4.56;80.03
60642;BME280;46837;52.446;-1.930;2024-02-26T01:44:09;99022.55;;;4.51;80.09
60642;BME280;46837;52.446;-1.930;2024-02-26T01:45:13;99039.63;;;4.57;80.27
60642;BME280;46837;52.446;-1.930;2024-02-26T01:46:11;99030.74;;;4.53;80.20
60642;BME280;46837;52.446;-1.930;2024-02-26T01:47:10;99033.30;;;4.49;80.20
60642;BME280;46837;52.446;-1.930;2024-02-26T01:48:09;99043.57;;;4.53;80.33
60642;BME280;46837;52.446;-1.930;2024-02-26T01:49:09;99034.62;;;4.53;80.25
60642;BME280;46837;52.446;-1.930;2024-02-26T01:50:09;99044.96;;;4.53;80.23
60642;BME280;46837;52.446;-1.930;2024-02-26T01:51:09;99039.38;;;4.56;80.23
60642;BME280;46837;52.446;-1.930;2024-02-26T01:52:09;99044.69;;;4.52;80.21
60642;BME280;46837;52.446;-1.930;2024-02-26T01:53:09;99056.49;;;4.54;80.42
60642;BME280;46837;52.446;-1.930;2024-02-26T01:54:09;99047.88;;;4.52;80.43
60642;BME280;46837;52.446;-1.930;2024-02-26T01:55:09;99048.81;;;4.52;80.46
60642;BME280;46837;52.446;-1.930;2024-02-26T01:56:09;99053.21;;;4.50;80.40
60642;BME280;46837;52.446;-1.930;2024-02-26T01:57:09;99050.42;;;4.47;80.40
60642;BME280;46837;52.446;-1.930;2024-02-26T01:58:09;99059.25;;;4.48;80.51
60642;BME280;46837;52.446;-1.930;2024-02-26T01:59:09;99062.88;;;4.49;80.47
60642;BME280;46837;52.446;-1.930;2024-02-26T02:00:09;99051.48;;;4.44;80.50
60642;BME280;46837;52.446;-1.930;2024-02-26T02:01:09;99062.16;;;4.45;80.43
60642;BME280;46837;52.446;-1.930;2024-02-26T02:02:09;99065.10;;;4.42;80.52
60642;BME280;46837;52.446;-1.930;2024-02-26T02:03:09;99056.93;;;4.42;80.49
60642;BME280;46837;52.446;-1.930;2024-02-26T02:04:09;99064.39;;;4.43;80.54
60642;BME280;46837;52.446;-1.930;2024-02-26T02:05:09;99063.88;;;4.40;80.64
60642;BME280;46837;52.446;-1.930;2024-02-26T02:06:09;99073.62;;;4.40;80.66
60642;BME280;46837;52.446;-1.930;2024-02-26T02:07:09;99065.76;;;4.39;80.76
60642;BME280;46837;52.446;-1.930;2024-02-26T02:08:09;99069.37;;;4.41;80.84
60642;BME280;46837;52.446;-1.930;2024-02-26T02:09:09;99060.19;;;4.39;80.86
60642;BME280;46837;52.446;-1.930;2024-02-26T02:10:09;99075.50;;;4.38;80.96
60642;BME280;46837;52.446;-1.930;2024-02-26T02:11:09;99069.36;;;4.36;81.00
60642;BME280;46837;52.446;-1.930;2024-02-26T02:12:09;99070.35;;;4.39;80.98
60642;BME280;46837;52.446;-1.930;2024-02-26T02:13:09;99073.94;;;4.40;80.92
60642;BME280;46837;52.446;-1.930;2024-02-26T02:14:09;99069.73;;;4.40;80.85
60642;BME280;46837;52.446;-1.930;2024-02-26T02:15:09;99073.30;;;4.40;80.87
60642;BME280;46837;52.446;-1.930;2024-02-26T02:16:09;99074.50;;;4.41;80.94
60642;BME280;46837;52.446;-1.930;2024-02-26T02:17:09;99073.05;;;4.37;81.05
60642;BME280;46837;52.446;-1.930;2024-02-26T02:18:09;99073.07;;;4.38;81.06
60642;BME280;46837;52.446;-1.930;2024-02-26T02:19:09;99081.73;;;4.39;81.03
60642;BME280;46837;52.446;-1.930;2024-02-26T02:20:15;99093.51;;;4.38;80.97
60642;BME280;46837;52.446;-1.930;2024-02-26T02:21:09;99085.29;;;4.38;81.19
60642;BME280;46837;52.446;-1.930;2024-02-26T02:22:09;99079.51;;;4.38;81.08
60642;BME280;46837;52.446;-1.930;2024-02-26T02:23:09;99089.17;;;4.37;81.03
60642;BME280;46837;52.446;-1.930;2024-02-26T02:24:09;99092.80;;;4.38;81.00
60642;BME280;46837;52.446;-1.930;2024-02-26T02:25:09;99089.96;;;4.41;81.09
60642;BME280;46837;52.446;-1.930;2024-02-26T02:26:09;99095.04;;;4.40;81.02
60642;BME280;46837;52.446;-1.930;2024-02-26T02:27:09;99091.55;;;4.42;81.01
60642;BME280;46837;52.446;-1.930;2024-02-26T02:28:09;99086.36;;;4.33;81.05
60642;BME280;46837;52.446;-1.930;2024-02-26T02:29:09;99102.40;;;4.30;81.27
60642;BME280;46837;52.446;-1.930;2024-02-26T02:30:09;99105.61;;;4.37;81.30
60642;BME280;46837;52.446;-1.930;2024-02-26T02:31:09;99097.23;;;4.33;81.28
60642;BME280;46837;52.446;-1.930;2024-02-26T02:32:09;99095.14;;;4.34;81.25
60642;BME280;46837;52.446;-1.930;2024-02-26T02:33:09;99098.59;;;4.34;81.49
60642;BME280;46837;52.446;-1.930;2024-02-26T02:34:09;99100.58;;;4.31;81.54
60642;BME280;46837;52.446;-1.930;2024-02-26T02:35:09;99110.19;;;4.30;81.54
60642;BME280;46837;52.446;-1.930;2024-02-26T02:36:12;99106.45;;;4.36;81.61
60642;BME280;46837;52.446;-1.930;2024-02-26T02:37:09;99104.76;;;4.38;81.49
60642;BME280;46837;52.446;-1.930;2024-02-26T02:38:09;99109.17;;;4.41;81.31
60642;BME280;46837;52.446;-1.930;2024-02-26T02:39:09;99114.33;;;4.39;81.31
60642;BME280;46837;52.446;-1.930;2024-02-26T02:40:09;99110.92;;;4.38;81.35
60642;BME280;46837;52.446;-1.930;2024-02-26T02:41:09;99114.23;;;4.39;81.37
60642;BME280;46837;52.446;-1.930;2024-02-26T02:42:09;99113.83;;;4.41;81.34
60642;BME280;46837;52.446;-1.930;2024-02-26T02:43:09;99111.64;;;4.45;81.29
60642;BME280;46837;52.446;-1.930;2024-02-26T02:44:09;99116.25;;;4.45;81.28
60642;BME280;46837;52.446;-1.930;2024-02-26T02:45:09;99124.47;;;4.46;81.24
60642;BME280;46837;52.446;-1.930;2024-02-26T02:46:09;99120.52;;;4.40;81.38
60642;BME280;46837;52.446;-1.930;2024-02-26T02:47:09;99125.34;;;4.41;81.55
60642;BME280;46837;52.446;-1.930;2024-02-26T02:48:09;99126.85;;;4.36;81.60
60642;BME280;46837;52.446;-1.930;2024-02-26T02:49:11;99134.29;;;4.38;81.54
60642;BME280;46837;52.446;-1.930;2024-02-26T02:50:09;99140.11;;;4.42;81.60
60642;BME280;46837;52.446;-1.930;2024-02-26T02:51:09;99127.99;;;4.42;81.45
60642;BME280;46837;52.446;-1.930;2024-02-26T02:52:09;99146.51;;;4.42;81.49
60642;BME280;46837;52.446;-1.930;2024-02-26T02:53:09;99139.12;;;4.45;81.45
60642;BME280;46837;52.446;-1.930;2024-02-26T02:54:09;99151.34;;;4.48;81.41
60642;BME280;46837;52.446;-1.930;2024-02-26T02:55:09;99145.22;;;4.48;81.30
60642;BME280;46837;52.446;-1.930;2024-02-26T02:56:09;99154.12;;;4.51;81.34
60642;BME280;46837;52.446;-1.930;2024-02-26T02:57:09;99155.33;;;4.48;81.30
60642;BME280;46837;52.446;-1.930;2024-02-26T02:58:09;99158.06;;;4.51;81.34
60642;BME280;46837;52.446;-1.930;2024-02-26T02:59:09;99158.58;;;4.50;81.35
60642;BME280;46837;52.446;-1.930;2024-02-26T03:00:09;99155.06;;;4.49;81.41
60642;BME280;46837;52.446;-1.930;2024-02-26T03:01:09;99159.93;;;4.49;81.46
60642;BME280;46837;52.446;-1.930;2024-02-26T03:02:09;99164.50;;;4.51;81.43
60642;BME280;46837;52.446;-1.930;2024-02-26T03:03:09;99164.98;;;4.54;81.43
60642;BME280;46837;52.446;-1.930;2024-02-26T03:04:09;99168.36;;;4.53;81.31
60642;BME280;46837;52.446;-1.930;2024-02-26T03:05:09;99168.47;;;4.52;81.43
60642;BME280;46837;52.446;-1.930;2024-02-26T03:06:09;99173.23;;;4.52;81.37
60642;BME280;46837;52.446;-1.930;2024-02-26T03:07:09;99177.47;;;4.54;81.43
60642;BME280;46837;52.446;-1.930;2024-02-26T03:08:09;99174.71;;;4.46;81.47
60642;BME280;46837;52.446;-1.930;2024-02-26T03:09:09;99167.38;;;4.47;81.57
60642;BME280;46837;52.446;-1.930;2024-02-26T03:10:09;99172.03;;;4.51;81.59
60642;BME280;46837;52.446;-1.930;2024-02-26T03:11:12;99173.50;;;4.48;81.52
60642;BME280;46837;52.446;-1.930;2024-02-26T03:12:09;99163.45;;;4.43;81.57
60642;BME280;46837;52.446;-1.930;2024-02-26T03:13:09;99173.43;;;4.42;81.65
60642;BME280;46837;52.446;-1.930;2024-02-26T03:14:09;99183.04;;;4.49;81.58
60642;BME280;46837;52.446;-1.930;2024-02-26T03:15:09;99179.81;;;4.45;81.54
60642;BME280;46837;52.446;-1.930;2024-02-26T03:16:09;99179.05;;;4.46;81.48
60642;BME280;46837;52.446;-1.930;2024-02-26T03:17:09;99189.71;;;4.37;81.59
60642;BME280;46837;52.446;-1.930;2024-02-26T03:18:09;99183.57;;;4.39;81.77
60642;BME280;46837;52.446;-1.930;2024-02-26T03:19:09;99184.70;;;4.38;81.85
60642;BME280;46837;52.446;-1.930;2024-02-26T03:20:09;99184.44;;;4.39;81.87
60642;BME280;46837;52.446;-1.930;2024-02-26T03:21:09;99185.99;;;4.42;81.83
60642;BME280;46837;52.446;-1.930;2024-02-26T03:22:09;99188.44;;;4.43;81.67
60642;BME280;46837;52.446;-1.930;2024-02-26T03:23:09;99185.05;;;4.45;81.68
60642;BME280;46837;52.446;-1.930;2024-02-26T03:24:09;99189.33;;;4.42;81.66
60642;BME280;46837;52.446;-1.930;2024-02-26T03:25:09;99182.66;;;4.44;81.58
60642;BME280;46837;52.446;-1.930;2024-02-26T03:26:09;99186.77;;;4.44;81.61
60642;BME280;46837;52.446;-1.930;2024-02-26T03:27:12;99197.25;;;4.38;81.78
60642;BME280;46837;52.446;-1.930;2024-02-26T03:28:09;99193.14;;;4.38;81.76
60642;BME280;46837;52.446;-1.930;2024-02-26T03:29:09;99194.34;;;4.40;81.71
60642;BME280;46837;52.446;-1.930;2024-02-26T03:30:09;99197.61;;;4.41;81.68
60642;BME280;46837;52.446;-1.930;2024-02-26T03:31:09;99197.31;;;4.39;81.56
60642;BME280;46837;52.446;-1.930;2024-02-26T03:32:09;99206.58;;;4.37;81.73
60642;BME280;46837;52.446;-1.930;2024-02-26T03:33:09;99205.52;;;4.43;81.67
60642;BME280;46837;52.446;-1.930;2024-02-26T03:34:09;99212.03;;;4.44;81.40
60642;BME280;46837;52.446;-1.930;2024-02-26T03:35:09;99215.86;;;4.39;81.38
60642;BME280;46837;52.446;-1.930;2024-02-26T03:36:09;99214.29;;;4.39;81.51
60642;BME280;46837;52.446;-1.930;2024-02-26T03:37:09;99208.72;;;4.38;81.49
60642;BME280;46837;52.446;-1.930;2024-02-26T03:38:09;99212.01;;;4.38;81.50
60642;BME280;46837;52.446;-1.930;2024-02-26T03:39:10;99219.15;;;4.38;81.47
60642;BME280;46837;52.446;-1.930;2024-02-26T03:40:09;99230.67;;;4.39;81.42
60642;BME280;46837;52.446;-1.930;2024-02-26T03:41:09;99226.52;;;4.39;81.39
60642;BME280;46837;52.446;-1.930;2024-02-26T03:42:09;99230.54;;;4.40;81.33
60642;BME280;46837;52.446;-1.930;2024-02-26T03:43:10;99243.93;;;4.38;81.28
60642;BME280;46837;52.446;-1.930;2024-02-26T03:44:09;99239.00;;;4.38;81.23
60642;BME280;46837;52.446;-1.930;2024-02-26T03:45:09;99232.64;;;4.32;81.21
60642;BME280;46837;52.446;-1.930;2024-02-26T03:46:09;99239.38;;;4.34;81.24
60642;BME280;46837;52.446;-1.930;2024-02-26T03:47:09;99246.77;;;4.31;81.15
60642;BME280;46837;52.446;-1.930;2024-02-26T03:48:09;99237.85;;;4.28;81.34
60642;BME280;46837;52.446;-1.930;2024-02-26T03:49:09;99236.07;;;4.29;81.21
60642;BME280;46837;52.446;-1.930;2024-02-26T03:50:09;99248.98;;;4.28;81.14
60642;BME280;46837;52.446;-1.930;2024-02-26T03:51:09;99247.24;;;4.31;81.23
60642;BME280;46837;52.446;-1.930;2024-02-26T03:52:09;99251.04;;;4.31;81.13
60642;BME280;46837;52.446;-1.930;2024-02-26T03:53:09;99251.84;;;4.32;80.98
60642;BME280;46837;52.446;-1.930;2024-02-26T03:54:09;99252.00;;;4.27;81.08
60642;BME280;46837;52.446;-1.930;2024-02-26T03:55:09;99256.99;;;4.29;80.93
60642;BME280;46837;52.446;-1.930;2024-02-26T03:56:09;99266.52;;;4.26;80.91
60642;BME280;46837;52.446;-1.930;2024-02-26T03:57:09;99262.95;;;4.20;80.91
60642;BME280;46837;52.446;-1.930;2024-02-26T03:58:09;99270.96;;;4.18;81.19
60642;BME280;46837;52.446;-1.930;2024-02-26T03:59:09;99266.77;;;4.20;81.17
60642;BME280;46837;52.446;-1.930;2024-02-26T04:00:09;99267.32;;;4.20;81.08
60642;BME280;46837;52.446;-1.930;2024-02-26T04:01:09;99260.74;;;4.22;81.15
60642;BME280;46837;52.446;-1.930;2024-02-26T04:02:09;99271.45;;;4.18;81.23
60642;BME280;46837;52.446;-1.930;2024-02-26T04:03:09;99268.71;;;4.15;81.27
60642;BME280;46837;52.446;-1.930;2024-02-26T04:04:09;99266.42;;;4.14;81.28
60642;BME280;46837;52.446;-1.930;2024-02-26T04:05:10;99276.66;;;4.15;81.29
60642;BME280;46837;52.446;-1.930;2024-02-26T04:06:10;99274.16;;;4.17;81.22
60642;BME280;46837;52.446;-1.930;2024-02-26T04:07:09;99276.69;;;4.18;81.12
60642;BME280;46837;52.446;-1.930;2024-02-26T04:08:09;99278.99;;;4.16;81.18
60642;BME280;46837;52.446;-1.930;2024-02-26T04:09:09;99276.95;;;4.13;81.19
60642;BME280;46837;52.446;-1.930;2024-02-26T04:10:11;99276.03;;;4.13;81.30
60642;BME280;46837;52.446;-1.930;2024-02-26T04:11:10;99288.05;;;4.14;81.31
60642;BME280;46837;52.446;-1.930;2024-02-26T04:12:09;99295.49;;;4.13;81.33
60642;BME280;46837;52.446;-1.930;2024-02-26T04:13:09;99301.02;;;4.10;81.38
60642;BME280;46837;52.446;-1.930;2024-02-26T04:14:11;99296.41;;;4.09;81.46
60642;BME280;46837;52.446;-1.930;2024-02-26T04:15:09;99298.69;;;4.09;81.52
60642;BME280;46837;52.446;-1.930;2024-02-26T04:16:09;99298.70;;;4.10;81.45
60642;BME280;46837;52.446;-1.930;2024-02-26T04:17:09;99294.37;;;4.10;81.56
60642;BME280;46837;52.446;-1.930;2024-02-26T04:18:09;99301.39;;;4.10;81.58
60642;BME280;46837;52.446;-1.930;2024-02-26T04:19:09;99310.59;;;4.07;81.70
60642;BME280;46837;52.446;-1.930;2024-02-26T04:20:13;99305.25;;;4.12;81.68
60642;BME280;46837;52.446;-1.930;2024-02-26T04:21:09;99313.14;;;4.11;81.66
60642;BME280;46837;52.446;-1.930;2024-02-26T04:22:09;99306.59;;;4.14;81.68
60642;BME280;46837;52.446;-1.930;2024-02-26T04:23:09;99313.61;;;4.13;81.74
60642;BME280;46837;52.446;-1.930;2024-02-26T04:24:09;99313.38;;;4.09;81.93
60642;BME280;46837;52.446;-1.930;2024-02-26T04:25:09;99316.59;;;4.13;81.90
60642;BME280;46837;52.446;-1.930;2024-02-26T04:26:09;99322.22;;;4.14;81.84
60642;BME280;46837;52.446;-1.930;2024-02-26T04:27:09;99330.45;;;4.08;81.94
60642;BME280;46837;52.446;-1.930;2024-02-26T04:28:09;99325.58;;;4.07;81.90
60642;BME280;46837;52.446;-1.930;2024-02-26T04:29:09;99325.17;;;4.09;81.92
60642;BME280;46837;52.446;-1.930;2024-02-26T04:30:09;99317.05;;;4.12;81.89
60642;BME280;46837;52.446;-1.930;2024-02-26T04:31:09;99328.18;;;4.10;81.85
60642;BME280;46837;52.446;-1.930;2024-02-26T04:32:09;99337.14;;;4.11;81.87
60642;BME280;46837;52.446;-1.930;2024-02-26T04:33:09;99329.54;;;4.15;81.81
60642;BME280;46837;52.446;-1.930;2024-02-26T04:34:09;99337.11;;;4.16;81.59
60642;BME280;46837;52.446;-1.930;2024-02-26T04:35:09;99332.67;;;4.15;81.64
60642;BME280;46837;52.446;-1.930;2024-02-26T04:36:12;99343.80;;;4.17;81.69
60642;BME280;46837;52.446;-1.930;2024-02-26T04:37:09;99345.37;;;4.17;81.51
60642;BME280;46837;52.446;-1.930;2024-02-26T04:38:09;99350.98;;;4.22;81.48
60642;BME280;46837;52.446;-1.930;2024-02-26T04:39:09;99349.73;;;4.18;81.36
60642;BME280;46837;52.446;-1.930;2024-02-26T04:40:09;99351.96;;;4.14;81.42
60642;BME280;46837;52.446;-1.930;2024-02-26T04:41:09;99351.00;;;4.15;81.56
60642;BME280;46837;52.446;-1.930;2024-02-26T04:42:09;99356.19;;;4.19;81.40
60642;BME280;46837;52.446;-1.930;2024-02-26T04:43:09;99349.15;;;4.18;81.39
60642;BME280;46837;52.446;-1.930;2024-02-26T04:44:09;99354.44;;;4.13;81.35
60642;BME280;46837;52.446;-1.930;2024-02-26T04:45:09;99362.35;;;4.11;81.40
60642;BME280;46837;52.446;-1.930;2024-02-26T04:46:10;99358.95;;;4.11;81.47
60642;BME280;46837;52.446;-1.930;2024-02-26T04:47:09;99363.41;;;4.13;81.39
60642;BME280;46837;52.446;-1.930;2024-02-26T04:48:09;99362.48;;;4.16;81.33
60642;BME280;46837;52.446;-1.930;2024-02-26T04:49:09;99360.35;;;4.05;81.28
60642;BME280;46837;52.446;-1.930;2024-02-26T04:50:09;99366.47;;;4.09;81.49
60642;BME280;46837;52.446;-1.930;2024-02-26T04:51:09;99365.16;;;4.14;81.33
60642;BME280;46837;52.446;-1.930;2024-02-26T04:52:09;99367.33;;;4.15;81.05
60642;BME280;46837;52.446;-1.930;2024-02-26T04:53:09;99375.75;;;4.17;81.13
60642;BME280;46837;52.446;-1.930;2024-02-26T04:54:09;99367.76;;;4.17;81.04
60642;BME280;46837;52.446;-1.930;2024-02-26T04:55:09;99376.32;;;4.16;81.05
60642;BME280;46837;52.446;-1.930;2024-02-26T04:56:09;99382.99;;;4.18;81.14
60642;BME280;46837;52.446;-1.930;2024-02-26T04:57:09;99381.21;;;4.21;80.97
60642;BME280;46837;52.446;-1.930;2024-02-26T04:58:09;99382.23;;;4.27;80.97
60642;BME280;46837;52.446;-1.930;2024-02-26T04:59:09;99384.73;;;4.28;80.81
60642;BME280;46837;52.446;-1.930;2024-02-26T05:00:09;99388.67;;;4.24;80.80
60642;BME280;46837;52.446;-1.930;2024-02-26T05:01:09;99394.42;;;4.29;80.82
60642;BME280;46837;52.446;-1.930;2024-02-26T05:02:09;99404.80;;;4.28;80.78
60642;BME280;46837;52.446;-1.930;2024-02-26T05:03:09;99407.39;;;4.25;80.70
60642;BME280;46837;52.446;-1.930;2024-02-26T05:04:09;99400.39;;;4.26;80.76
60642;BME280;46837;52.446;-1.930;2024-02-26T05:05:09;99405.09;;;4.23;80.51
60642;BME280;46837;52.446;-1.930;2024-02-26T05:06:09;99404.12;;;4.26;80.68
60642;BME280;46837;52.446;-1.930;2024-02-26T05:07:09;99399.12;;;4.31;80.65
60642;BME280;46837;52.446;-1.930;2024-02-26T05:08:09;99408.50;;;4.34;80.48
60642;BME280;46837;52.446;-1.930;2024-02-26T05:09:09;99411.21;;;4.34;80.37
60642;BME280;46837;52.446;-1.930;2024-02-26T05:10:09;99401.48;;;4.34;80.30
60642;BME280;46837;52.446;-1.930;2024-02-26T05:11:09;99417.65;;;4.30;80.43
60642;BME280;46837;52.446;-1.930;2024-02-26T05:12:09;99410.79;;;4.34;80.46
60642;BME280;46837;52.446;-1.930;2024-02-26T05:13:09;99418.08;;;4.37;80.40
60642;BME280;46837;52.446;-1.930;2024-02-26T05:14:09;99417.12;;;4.34;80.36
60642;BME280;46837;52.446;-1.930;2024-02-26T05:15:09;99423.71;;;4.30;80.47
60642;BME280;46837;52.446;-1.930;2024-02-26T05:16:09;99425.23;;;4.34;80.52
60642;BME280;46837;52.446;-1.930;2024-02-26T05:17:09;99428.77;;;4.33;80.37